createdAt,value
2016-12-24T00:00:08.009Z,74423
2016-12-24T00:00:16.705Z,74430
2016-12-24T00:00:25.368Z,74430
2016-12-24T00:00:34.041Z,74430
2016-12-24T00:00:42.727Z,74424
2016-12-24T00:00:51.418Z,74426
2016-12-24T00:01:00.091Z,74421
2016-12-24T00:01:08.789Z,74421
2016-12-24T00:01:17.474Z,74419
2016-12-24T00:01:26.144Z,74423
2016-12-24T00:01:34.820Z,74415
2016-12-24T00:01:43.483Z,74409
2016-12-24T00:01:52.160Z,74419
2016-12-24T00:02:00.844Z,74424
2016-12-24T00:02:09.541Z,74427
2016-12-24T00:02:18.223Z,74426
2016-12-24T00:02:26.897Z,74421
2016-12-24T00:02:35.550Z,74411
2016-12-24T00:02:44.202Z,74414
2016-12-24T00:02:52.880Z,74426
2016-12-24T00:03:01.554Z,74429
2016-12-24T00:03:10.213Z,74427
2016-12-24T00:03:18.872Z,74423
2016-12-24T00:03:27.548Z,74419
2016-12-24T00:03:36.205Z,74412
2016-12-24T00:03:44.855Z,74408
2016-12-24T00:03:53.523Z,74406
2016-12-24T00:04:02.181Z,74420
2016-12-24T00:04:10.843Z,74424
2016-12-24T00:04:19.507Z,74425
2016-12-24T00:04:28.176Z,74418
2016-12-24T00:04:36.831Z,74422
2016-12-24T00:04:45.789Z,74419
2016-12-24T00:04:54.441Z,74418
2016-12-24T00:05:03.107Z,74419
2016-12-24T00:05:11.797Z,74427
2016-12-24T00:05:20.468Z,74423
2016-12-24T00:05:29.145Z,74427
2016-12-24T00:05:37.802Z,74428
2016-12-24T00:05:46.471Z,74417
2016-12-24T00:05:55.151Z,74416
2016-12-24T00:06:03.826Z,74407
2016-12-24T00:06:12.515Z,74413
2016-12-24T00:06:21.218Z,74409
2016-12-24T00:06:29.881Z,74416
2016-12-24T00:06:38.567Z,74413
2016-12-24T00:06:47.251Z,74423
2016-12-24T00:06:55.920Z,74416
2016-12-24T00:07:04.574Z,74422
2016-12-24T00:07:13.235Z,74418
2016-12-24T00:07:21.938Z,74415
2016-12-24T00:07:30.615Z,74428
2016-12-24T00:07:39.278Z,74436
2016-12-24T00:07:47.967Z,74423
2016-12-24T00:07:56.642Z,74421
2016-12-24T00:08:05.308Z,74424
2016-12-24T00:08:13.963Z,74407
2016-12-24T00:08:22.646Z,74407
2016-12-24T00:08:31.308Z,74420
2016-12-24T00:08:39.980Z,74426
2016-12-24T00:08:48.664Z,74423
2016-12-24T00:08:57.341Z,74418
2016-12-24T00:09:06.015Z,74421
2016-12-24T00:09:14.680Z,74421
2016-12-24T00:09:23.348Z,74421
2016-12-24T00:09:32.033Z,74412
2016-12-24T00:09:40.714Z,74410
2016-12-24T00:09:49.377Z,74416
2016-12-24T00:09:58.056Z,74431
2016-12-24T00:10:06.723Z,74421
2016-12-24T00:10:15.382Z,74424
2016-12-24T00:10:24.054Z,74423
2016-12-24T00:10:32.745Z,74422
2016-12-24T00:10:41.708Z,74428
2016-12-24T00:10:50.361Z,74425
2016-12-24T00:10:59.015Z,74425
2016-12-24T00:11:07.720Z,74423
2016-12-24T00:11:16.386Z,74425
2016-12-24T00:11:25.061Z,74424
2016-12-24T00:11:33.734Z,74420
2016-12-24T00:11:42.378Z,74419
2016-12-24T00:11:51.026Z,74428
2016-12-24T00:11:59.682Z,74421
2016-12-24T00:12:08.355Z,74424
2016-12-24T00:12:17.005Z,74417
2016-12-24T00:12:25.674Z,74412
2016-12-24T00:12:34.377Z,74412
2016-12-24T00:12:43.044Z,74416
2016-12-24T00:12:51.729Z,74423
2016-12-24T00:13:00.402Z,74420
2016-12-24T00:13:09.078Z,74431
2016-12-24T00:13:17.744Z,74435
2016-12-24T00:13:26.430Z,74432
2016-12-24T00:13:35.108Z,74431
2016-12-24T00:13:43.796Z,74427
2016-12-24T00:13:52.463Z,74415
2016-12-24T00:14:01.146Z,74425
2016-12-24T00:14:09.807Z,74423
2016-12-24T00:14:18.478Z,74424
2016-12-24T00:14:27.180Z,74416
2016-12-24T00:14:35.864Z,74408
2016-12-24T00:14:44.552Z,74412
2016-12-24T00:14:53.249Z,74417
2016-12-24T00:15:01.913Z,74424
2016-12-24T00:15:10.631Z,74425
2016-12-24T00:15:19.302Z,74425
2016-12-24T00:15:27.982Z,74423
2016-12-24T00:15:36.649Z,74423
2016-12-24T00:15:45.328Z,74425
2016-12-24T00:15:54.017Z,74420
2016-12-24T00:16:02.694Z,74415
2016-12-24T00:16:11.347Z,74417
2016-12-24T00:16:20.019Z,74422
2016-12-24T00:16:28.690Z,74421
2016-12-24T00:16:37.369Z,74423
2016-12-24T00:16:46.051Z,74417
2016-12-24T00:16:54.722Z,74416
2016-12-24T00:17:03.377Z,74421
2016-12-24T00:17:12.036Z,74427
2016-12-24T00:17:20.701Z,74425
2016-12-24T00:17:29.418Z,74432
2016-12-24T00:17:38.079Z,74435
2016-12-24T00:17:46.746Z,74431
2016-12-24T00:17:55.436Z,74429
2016-12-24T00:18:04.099Z,74424
2016-12-24T00:18:12.761Z,74417
2016-12-24T00:18:21.459Z,74414
2016-12-24T00:18:30.128Z,74417
2016-12-24T00:18:38.794Z,74426
2016-12-24T00:18:47.481Z,74431
2016-12-24T00:18:56.168Z,74428
2016-12-24T00:19:04.826Z,74423
2016-12-24T00:19:13.502Z,74418
2016-12-24T00:19:22.177Z,74413
2016-12-24T00:19:30.863Z,74423
2016-12-24T00:19:39.536Z,74425
2016-12-24T00:19:48.191Z,74423
2016-12-24T00:19:56.880Z,74423
2016-12-24T00:20:05.545Z,74421
2016-12-24T00:20:14.229Z,74413
2016-12-24T00:20:22.888Z,74406
2016-12-24T00:20:31.551Z,74409
2016-12-24T00:20:40.270Z,74415
2016-12-24T00:20:48.938Z,74414
2016-12-24T00:20:57.607Z,74424
2016-12-24T00:21:06.291Z,74428
2016-12-24T00:21:14.958Z,74433
2016-12-24T00:21:23.602Z,74429
2016-12-24T00:21:32.254Z,74425
2016-12-24T00:21:40.918Z,74424
2016-12-24T00:21:49.604Z,74420
2016-12-24T00:21:58.314Z,74416
2016-12-24T00:22:06.988Z,74414
2016-12-24T00:22:15.666Z,74409
2016-12-24T00:22:24.347Z,74408
2016-12-24T00:22:33.013Z,74407
2016-12-24T00:22:41.717Z,74413
2016-12-24T00:22:50.396Z,74426
2016-12-24T00:22:59.071Z,74425
2016-12-24T00:23:07.732Z,74425
2016-12-24T00:23:16.404Z,74420
2016-12-24T00:23:25.053Z,74416
2016-12-24T00:23:33.706Z,74411
2016-12-24T00:23:42.356Z,74412
2016-12-24T00:23:51.025Z,74408
2016-12-24T00:23:59.713Z,74409
2016-12-24T00:24:08.379Z,74416
2016-12-24T00:24:17.049Z,74419
2016-12-24T00:24:25.710Z,74418
2016-12-24T00:24:34.398Z,74418
2016-12-24T00:24:43.073Z,74418
2016-12-24T00:24:51.738Z,74414
2016-12-24T00:25:00.408Z,74414
2016-12-24T00:25:09.069Z,74412
2016-12-24T00:25:17.722Z,74405
2016-12-24T00:25:26.392Z,74414
2016-12-24T00:25:35.060Z,74422
2016-12-24T00:25:43.729Z,74415
2016-12-24T00:25:52.407Z,74411
2016-12-24T00:26:01.391Z,74409
2016-12-24T00:26:10.054Z,74409
2016-12-24T00:26:18.744Z,74400
2016-12-24T00:26:27.430Z,74399
2016-12-24T00:26:36.087Z,74409
2016-12-24T00:26:44.770Z,74420
2016-12-24T00:26:53.454Z,74426
2016-12-24T00:27:02.129Z,74424
2016-12-24T00:27:10.787Z,74423
2016-12-24T00:27:19.473Z,74417
2016-12-24T00:27:28.429Z,74417
2016-12-24T00:27:37.126Z,74413
2016-12-24T00:27:45.781Z,74415
2016-12-24T00:27:54.451Z,74418
2016-12-24T00:28:03.119Z,74416
2016-12-24T00:28:11.771Z,74417
2016-12-24T00:28:20.440Z,74415
2016-12-24T00:28:29.125Z,74415
2016-12-24T00:28:37.815Z,74414
2016-12-24T00:28:46.494Z,74411
2016-12-24T00:28:55.166Z,74417
2016-12-24T00:29:03.841Z,74418
2016-12-24T00:29:12.517Z,74419
2016-12-24T00:29:21.171Z,74423
2016-12-24T00:29:29.824Z,74418
2016-12-24T00:29:38.499Z,74412
2016-12-24T00:29:47.178Z,74416
2016-12-24T00:29:55.840Z,74416
2016-12-24T00:30:04.510Z,74416
2016-12-24T00:30:13.169Z,74417
2016-12-24T00:30:21.847Z,74411
2016-12-24T00:30:30.513Z,74408
2016-12-24T00:30:39.188Z,74405
2016-12-24T00:30:47.848Z,74411
2016-12-24T00:30:56.517Z,74413
2016-12-24T00:31:05.212Z,74417
2016-12-24T00:31:13.893Z,74425
2016-12-24T00:31:22.575Z,74421
2016-12-24T00:31:31.243Z,74422
2016-12-24T00:31:39.901Z,74423
2016-12-24T00:31:48.587Z,74421
2016-12-24T00:31:57.262Z,74420
2016-12-24T00:32:05.951Z,74418
2016-12-24T00:32:14.629Z,74415
2016-12-24T00:32:23.293Z,74410
2016-12-24T00:32:31.945Z,74410
2016-12-24T00:32:40.612Z,74425
2016-12-24T00:32:49.292Z,74436
2016-12-24T00:32:57.954Z,74427
2016-12-24T00:33:06.650Z,74424
2016-12-24T00:33:15.328Z,74428
2016-12-24T00:33:23.991Z,74412
2016-12-24T00:33:32.667Z,74415
2016-12-24T00:33:41.336Z,74413
2016-12-24T00:33:50.014Z,74412
2016-12-24T00:33:58.689Z,74404
2016-12-24T00:34:07.354Z,74408
2016-12-24T00:34:16.037Z,74412
2016-12-24T00:34:24.707Z,74423
2016-12-24T00:34:33.386Z,74420
2016-12-24T00:34:42.057Z,74420
2016-12-24T00:34:50.725Z,74414
2016-12-24T00:34:59.391Z,74422
2016-12-24T00:35:08.054Z,74414
2016-12-24T00:35:16.745Z,74417
2016-12-24T00:35:25.437Z,74420
2016-12-24T00:35:34.105Z,74416
2016-12-24T00:35:42.763Z,74414
2016-12-24T00:35:51.444Z,74422
2016-12-24T00:36:00.111Z,74417
2016-12-24T00:36:08.780Z,74411
2016-12-24T00:36:17.455Z,74407
2016-12-24T00:36:26.131Z,74406
2016-12-24T00:36:34.783Z,74406
2016-12-24T00:36:43.452Z,74407
2016-12-24T00:36:52.105Z,74406
2016-12-24T00:37:00.783Z,74405
2016-12-24T00:37:09.457Z,74407
2016-12-24T00:37:18.134Z,74409
2016-12-24T00:37:26.790Z,74414
2016-12-24T00:37:35.461Z,74412
2016-12-24T00:37:44.149Z,74410
2016-12-24T00:37:52.818Z,74421
2016-12-24T00:38:01.490Z,74423
2016-12-24T00:38:10.188Z,74420
2016-12-24T00:38:18.868Z,74413
2016-12-24T00:38:27.553Z,74415
2016-12-24T00:38:36.209Z,74406
2016-12-24T00:38:44.875Z,74406
2016-12-24T00:38:53.581Z,74414
2016-12-24T00:39:02.275Z,74411
2016-12-24T00:39:10.974Z,74414
2016-12-24T00:39:19.630Z,74414
2016-12-24T00:39:28.303Z,74417
2016-12-24T00:39:36.965Z,74415
2016-12-24T00:39:45.665Z,74413
2016-12-24T00:39:54.337Z,74411
2016-12-24T00:40:03.036Z,74409
2016-12-24T00:40:11.711Z,74407
2016-12-24T00:40:20.395Z,74408
2016-12-24T00:40:29.371Z,74411
2016-12-24T00:40:38.045Z,74413
2016-12-24T00:40:46.719Z,74406
2016-12-24T00:40:55.387Z,74412
2016-12-24T00:41:04.054Z,74415
2016-12-24T00:41:12.717Z,74411
2016-12-24T00:41:21.386Z,74416
2016-12-24T00:41:30.071Z,74415
2016-12-24T00:41:38.748Z,74420
2016-12-24T00:41:47.446Z,74418
2016-12-24T00:41:56.128Z,74419
2016-12-24T00:42:04.820Z,74421
2016-12-24T00:42:13.490Z,74415
2016-12-24T00:42:22.175Z,74415
2016-12-24T00:42:30.848Z,74415
2016-12-24T00:42:39.510Z,74415
2016-12-24T00:42:48.172Z,74412
2016-12-24T00:42:56.846Z,74410
2016-12-24T00:43:05.524Z,74414
2016-12-24T00:43:14.200Z,74415
2016-12-24T00:43:22.899Z,74413
2016-12-24T00:43:31.581Z,74413
2016-12-24T00:43:40.242Z,74416
2016-12-24T00:43:48.905Z,74420
2016-12-24T00:43:57.585Z,74415
2016-12-24T00:44:06.241Z,74410
2016-12-24T00:44:14.935Z,74412
2016-12-24T00:44:23.615Z,74408
2016-12-24T00:44:32.266Z,74403
2016-12-24T00:44:40.936Z,74410
2016-12-24T00:44:49.619Z,74411
2016-12-24T00:44:58.303Z,74409
2016-12-24T00:45:06.985Z,74413
2016-12-24T00:45:15.639Z,74414
2016-12-24T00:45:24.284Z,74415
2016-12-24T00:45:33.262Z,74418
2016-12-24T00:45:41.972Z,74412
2016-12-24T00:45:50.650Z,74403
2016-12-24T00:45:59.328Z,74399
2016-12-24T00:46:08.006Z,74398
2016-12-24T00:46:16.695Z,74395
2016-12-24T00:46:25.367Z,74393
2016-12-24T00:46:34.034Z,74406
2016-12-24T00:46:42.979Z,74410
2016-12-24T00:46:51.628Z,74411
2016-12-24T00:47:00.318Z,74407
2016-12-24T00:47:08.967Z,74403
2016-12-24T00:47:17.655Z,74404
2016-12-24T00:47:26.317Z,74400
2016-12-24T00:47:35.293Z,74406
2016-12-24T00:47:44.246Z,74405
2016-12-24T00:47:52.902Z,74402
2016-12-24T00:48:01.561Z,74401
2016-12-24T00:48:10.219Z,74403
2016-12-24T00:48:18.891Z,74402
2016-12-24T00:48:27.553Z,74405
2016-12-24T00:48:36.221Z,74403
2016-12-24T00:48:44.905Z,74408
2016-12-24T00:48:53.592Z,74406
2016-12-24T00:49:02.280Z,74409
2016-12-24T00:49:10.966Z,74405
2016-12-24T00:49:19.607Z,74408
2016-12-24T00:49:28.287Z,74408
2016-12-24T00:49:36.936Z,74404
2016-12-24T00:49:45.609Z,74403
2016-12-24T00:49:54.278Z,74403
2016-12-24T00:50:02.953Z,74401
2016-12-24T00:50:11.622Z,74401
2016-12-24T00:50:20.286Z,74399
2016-12-24T00:50:28.966Z,74398
2016-12-24T00:50:37.641Z,74399
2016-12-24T00:50:46.309Z,74403
2016-12-24T00:50:55.265Z,74402
2016-12-24T00:51:03.943Z,74402
2016-12-24T00:51:12.610Z,74407
2016-12-24T00:51:21.291Z,74406
2016-12-24T00:51:29.954Z,74404
2016-12-24T00:51:38.908Z,74403
2016-12-24T00:51:47.565Z,74401
2016-12-24T00:51:56.245Z,74404
2016-12-24T00:52:04.946Z,74403
2016-12-24T00:52:13.612Z,74402
2016-12-24T00:52:22.292Z,74405
2016-12-24T00:52:30.957Z,74407
2016-12-24T00:52:39.642Z,74403
2016-12-24T00:52:48.304Z,74403
2016-12-24T00:52:56.969Z,74404
2016-12-24T00:53:05.942Z,74407
2016-12-24T00:53:14.630Z,74405
2016-12-24T00:53:23.299Z,74405
2016-12-24T00:53:31.964Z,74406
2016-12-24T00:53:40.622Z,74405
2016-12-24T00:53:49.304Z,74405
2016-12-24T00:53:57.976Z,74407
2016-12-24T00:54:06.676Z,74406
2016-12-24T00:54:15.350Z,74403
2016-12-24T00:54:24.032Z,74404
2016-12-24T00:54:32.705Z,74408
2016-12-24T00:54:41.376Z,74411
2016-12-24T00:54:50.076Z,74410
2016-12-24T00:54:58.741Z,74407
2016-12-24T00:55:07.707Z,74408
2016-12-24T00:55:16.373Z,74407
2016-12-24T00:55:25.060Z,74402
2016-12-24T00:55:33.720Z,74401
2016-12-24T00:55:42.369Z,74404
2016-12-24T00:55:51.033Z,74413
2016-12-24T00:55:59.716Z,74410
2016-12-24T00:56:08.377Z,74409
2016-12-24T00:56:17.337Z,74404
2016-12-24T00:56:26.026Z,74413
2016-12-24T00:56:34.711Z,74408
2016-12-24T00:56:43.401Z,74408
2016-12-24T00:56:52.070Z,74411
2016-12-24T00:57:00.746Z,74405
2016-12-24T00:57:09.401Z,74400
2016-12-24T00:57:18.069Z,74399
2016-12-24T00:57:26.767Z,74398
2016-12-24T00:57:35.438Z,74396
2016-12-24T00:57:44.106Z,74398
2016-12-24T00:57:52.782Z,74398
2016-12-24T00:58:01.430Z,74406
2016-12-24T00:58:10.088Z,74412
2016-12-24T00:58:18.764Z,74409
2016-12-24T00:58:27.433Z,74410
2016-12-24T00:58:36.122Z,74407
2016-12-24T00:58:44.793Z,74406
2016-12-24T00:58:53.462Z,74398
2016-12-24T00:59:02.131Z,74400
2016-12-24T00:59:10.805Z,74402
2016-12-24T00:59:19.485Z,74403
2016-12-24T00:59:28.143Z,74405
2016-12-24T00:59:36.824Z,74408
2016-12-24T00:59:45.497Z,74398
2016-12-24T00:59:54.178Z,74402
2016-12-24T01:00:02.850Z,74412
2016-12-24T01:00:11.513Z,74413
2016-12-24T01:00:20.193Z,74415
2016-12-24T01:00:28.850Z,74408
2016-12-24T01:00:37.513Z,74409
2016-12-24T01:00:46.191Z,74405
2016-12-24T01:00:54.846Z,74399
2016-12-24T01:01:03.492Z,74391
2016-12-24T01:01:12.187Z,74391
2016-12-24T01:01:20.863Z,74397
2016-12-24T01:01:29.526Z,74407
2016-12-24T01:01:38.202Z,74403
2016-12-24T01:01:46.877Z,74399
2016-12-24T01:01:55.548Z,74393
2016-12-24T01:02:04.207Z,74396
2016-12-24T01:02:12.874Z,74386
2016-12-24T01:02:21.536Z,74394
2016-12-24T01:02:30.200Z,74399
2016-12-24T01:02:38.860Z,74401
2016-12-24T01:02:47.520Z,74402
2016-12-24T01:02:56.186Z,74400
2016-12-24T01:03:04.868Z,74395
2016-12-24T01:03:13.533Z,74385
2016-12-24T01:03:22.214Z,74391
2016-12-24T01:03:31.171Z,74403
2016-12-24T01:03:39.852Z,74404
2016-12-24T01:03:48.525Z,74414
2016-12-24T01:03:57.230Z,74404
2016-12-24T01:04:05.881Z,74401
2016-12-24T01:04:14.561Z,74395
2016-12-24T01:04:23.241Z,74394
2016-12-24T01:04:31.917Z,74405
2016-12-24T01:04:40.608Z,74409
2016-12-24T01:04:49.279Z,74402
2016-12-24T01:04:57.942Z,74400
2016-12-24T01:05:06.590Z,74404
2016-12-24T01:05:15.272Z,74403
2016-12-24T01:05:23.950Z,74404
2016-12-24T01:05:32.637Z,74403
2016-12-24T01:05:41.318Z,74397
2016-12-24T01:05:49.998Z,74404
2016-12-24T01:05:58.676Z,74401
2016-12-24T01:06:07.360Z,74409
2016-12-24T01:06:16.040Z,74408
2016-12-24T01:06:24.724Z,74407
2016-12-24T01:06:33.396Z,74409
2016-12-24T01:06:42.091Z,74406
2016-12-24T01:06:50.760Z,74403
2016-12-24T01:06:59.430Z,74393
2016-12-24T01:07:08.104Z,74384
2016-12-24T01:07:16.767Z,74384
2016-12-24T01:07:25.424Z,74394
2016-12-24T01:07:34.099Z,74405
2016-12-24T01:07:42.770Z,74404
2016-12-24T01:07:51.443Z,74401
2016-12-24T01:08:00.144Z,74395
2016-12-24T01:08:08.827Z,74397
2016-12-24T01:08:17.509Z,74392
2016-12-24T01:08:26.178Z,74403
2016-12-24T01:08:34.886Z,74410
2016-12-24T01:08:43.542Z,74412
2016-12-24T01:08:52.185Z,74399
2016-12-24T01:09:00.864Z,74403
2016-12-24T01:09:09.550Z,74398
2016-12-24T01:09:18.232Z,74395
2016-12-24T01:09:26.923Z,74402
2016-12-24T01:09:35.595Z,74403
2016-12-24T01:09:44.292Z,74404
2016-12-24T01:09:52.954Z,74404
2016-12-24T01:10:01.618Z,74397
2016-12-24T01:10:10.302Z,74396
2016-12-24T01:10:18.976Z,74393
2016-12-24T01:10:27.646Z,74392
2016-12-24T01:10:36.327Z,74385
2016-12-24T01:10:44.983Z,74395
2016-12-24T01:10:53.675Z,74401
2016-12-24T01:11:02.350Z,74398
2016-12-24T01:11:10.992Z,74401
2016-12-24T01:11:19.980Z,74401
2016-12-24T01:11:28.642Z,74402
2016-12-24T01:11:37.329Z,74408
2016-12-24T01:11:46.017Z,74402
2016-12-24T01:11:54.714Z,74398
2016-12-24T01:12:03.377Z,74396
2016-12-24T01:12:12.324Z,74392
2016-12-24T01:12:20.984Z,74390
2016-12-24T01:12:29.959Z,74401
2016-12-24T01:12:38.631Z,74410
2016-12-24T01:12:47.305Z,74404
2016-12-24T01:12:55.984Z,74402
2016-12-24T01:13:04.673Z,74402
2016-12-24T01:13:13.351Z,74396
2016-12-24T01:13:22.042Z,74394
2016-12-24T01:13:30.720Z,74395
2016-12-24T01:13:39.385Z,74396
2016-12-24T01:13:48.076Z,74396
2016-12-24T01:13:56.746Z,74397
2016-12-24T01:14:05.422Z,74402
2016-12-24T01:14:14.093Z,74414
2016-12-24T01:14:22.760Z,74414
2016-12-24T01:14:31.439Z,74408
2016-12-24T01:14:40.138Z,74403
2016-12-24T01:14:48.803Z,74402
2016-12-24T01:14:57.475Z,74404
2016-12-24T01:15:06.139Z,74399
2016-12-24T01:15:14.802Z,74388
2016-12-24T01:15:23.461Z,74388
2016-12-24T01:15:32.114Z,74380
2016-12-24T01:15:40.809Z,74387
2016-12-24T01:15:49.489Z,74394
2016-12-24T01:15:58.155Z,74403
2016-12-24T01:16:06.824Z,74395
2016-12-24T01:16:15.507Z,74400
2016-12-24T01:16:24.158Z,74403
2016-12-24T01:16:32.845Z,74401
2016-12-24T01:16:41.538Z,74392
2016-12-24T01:16:50.201Z,74390
2016-12-24T01:16:58.874Z,74384
2016-12-24T01:17:07.542Z,74388
2016-12-24T01:17:16.199Z,74392
2016-12-24T01:17:24.869Z,74403
2016-12-24T01:17:33.534Z,74405
2016-12-24T01:17:42.209Z,74406
2016-12-24T01:17:50.851Z,74406
2016-12-24T01:17:59.517Z,74395
2016-12-24T01:18:08.195Z,74391
2016-12-24T01:18:16.867Z,74385
2016-12-24T01:18:25.549Z,74388
2016-12-24T01:18:34.273Z,74396
2016-12-24T01:18:42.948Z,74399
2016-12-24T01:18:51.621Z,74400
2016-12-24T01:19:00.301Z,74397
2016-12-24T01:19:08.977Z,74394
2016-12-24T01:19:17.660Z,74392
2016-12-24T01:19:26.324Z,74399
2016-12-24T01:19:34.990Z,74409
2016-12-24T01:19:43.663Z,74403
2016-12-24T01:19:52.327Z,74396
2016-12-24T01:20:00.973Z,74408
2016-12-24T01:20:09.612Z,74389
2016-12-24T01:20:18.290Z,74393
2016-12-24T01:20:26.985Z,74399
2016-12-24T01:20:35.663Z,74393
2016-12-24T01:20:44.356Z,74388
2016-12-24T01:20:53.037Z,74393
2016-12-24T01:21:01.752Z,74396
2016-12-24T01:21:10.437Z,74401
2016-12-24T01:21:19.130Z,74398
2016-12-24T01:21:27.776Z,74399
2016-12-24T01:21:36.448Z,74396
2016-12-24T01:21:45.123Z,74392
2016-12-24T01:21:53.775Z,74392
2016-12-24T01:22:02.463Z,74389
2016-12-24T01:22:11.117Z,74390
2016-12-24T01:22:20.098Z,74387
2016-12-24T01:22:29.065Z,74389
2016-12-24T01:22:37.709Z,74400
2016-12-24T01:22:46.368Z,74403
2016-12-24T01:22:55.044Z,74409
2016-12-24T01:23:03.727Z,74405
2016-12-24T01:23:12.391Z,74407
2016-12-24T01:23:21.050Z,74394
2016-12-24T01:23:29.722Z,74386
2016-12-24T01:23:38.404Z,74390
2016-12-24T01:23:47.090Z,74400
2016-12-24T01:23:55.765Z,74399
2016-12-24T01:24:04.415Z,74399
2016-12-24T01:24:13.085Z,74401
2016-12-24T01:24:21.760Z,74401
2016-12-24T01:24:30.457Z,74399
2016-12-24T01:24:39.110Z,74403
2016-12-24T01:24:47.775Z,74393
2016-12-24T01:24:56.432Z,74398
2016-12-24T01:25:05.091Z,74391
2016-12-24T01:25:13.761Z,74403
2016-12-24T01:25:22.427Z,74407
2016-12-24T01:25:31.092Z,74409
2016-12-24T01:25:39.760Z,74403
2016-12-24T01:25:48.446Z,74400
2016-12-24T01:25:57.105Z,74394
2016-12-24T01:26:05.769Z,74394
2016-12-24T01:26:14.436Z,74396
2016-12-24T01:26:23.109Z,74408
2016-12-24T01:26:31.789Z,74403
2016-12-24T01:26:40.474Z,74401
2016-12-24T01:26:49.143Z,74398
2016-12-24T01:26:57.815Z,74394
2016-12-24T01:27:06.499Z,74395
2016-12-24T01:27:15.165Z,74388
2016-12-24T01:27:23.823Z,74395
2016-12-24T01:27:32.504Z,74389
2016-12-24T01:27:41.177Z,74390
2016-12-24T01:27:49.867Z,74396
2016-12-24T01:27:58.527Z,74404
2016-12-24T01:28:07.206Z,74404
2016-12-24T01:28:15.853Z,74398
2016-12-24T01:28:24.508Z,74399
2016-12-24T01:28:33.204Z,74392
2016-12-24T01:28:41.870Z,74384
2016-12-24T01:28:50.561Z,74386
2016-12-24T01:28:59.220Z,74394
2016-12-24T01:29:07.910Z,74398
2016-12-24T01:29:16.588Z,74403
2016-12-24T01:29:25.249Z,74406
2016-12-24T01:29:33.923Z,74396
2016-12-24T01:29:42.603Z,74398
2016-12-24T01:29:51.263Z,74399
2016-12-24T01:29:59.935Z,74400
2016-12-24T01:30:08.607Z,74404
2016-12-24T01:30:17.279Z,74410
2016-12-24T01:30:25.926Z,74405
2016-12-24T01:30:34.593Z,74403
2016-12-24T01:30:43.253Z,74399
2016-12-24T01:30:51.895Z,74396
2016-12-24T01:31:00.562Z,74398
2016-12-24T01:31:09.208Z,74395
2016-12-24T01:31:17.865Z,74400
2016-12-24T01:31:26.838Z,74408
2016-12-24T01:31:35.519Z,74409
2016-12-24T01:31:44.196Z,74401
2016-12-24T01:31:52.883Z,74398
2016-12-24T01:32:01.559Z,74400
2016-12-24T01:32:10.263Z,74403
2016-12-24T01:32:18.949Z,74397
2016-12-24T01:32:27.647Z,74394
2016-12-24T01:32:36.333Z,74393
2016-12-24T01:32:45.032Z,74395
2016-12-24T01:32:53.719Z,74405
2016-12-24T01:33:02.399Z,74413
2016-12-24T01:33:11.088Z,74415
2016-12-24T01:33:19.759Z,74419
2016-12-24T01:33:28.436Z,74407
2016-12-24T01:33:37.095Z,74409
2016-12-24T01:33:45.781Z,74406
2016-12-24T01:33:54.446Z,74397
2016-12-24T01:34:03.109Z,74401
2016-12-24T01:34:11.778Z,74399
2016-12-24T01:34:20.449Z,74402
2016-12-24T01:34:29.127Z,74410
2016-12-24T01:34:37.795Z,74414
2016-12-24T01:34:46.457Z,74406
2016-12-24T01:34:55.141Z,74411
2016-12-24T01:35:03.847Z,74409
2016-12-24T01:35:12.517Z,74404
2016-12-24T01:35:21.199Z,74403
2016-12-24T01:35:29.873Z,74394
2016-12-24T01:35:38.517Z,74402
2016-12-24T01:35:47.175Z,74401
2016-12-24T01:35:55.859Z,74403
2016-12-24T01:36:04.507Z,74412
2016-12-24T01:36:13.201Z,74410
2016-12-24T01:36:21.879Z,74410
2016-12-24T01:36:30.540Z,74408
2016-12-24T01:36:39.232Z,74403
2016-12-24T01:36:47.901Z,74403
2016-12-24T01:36:56.551Z,74399
2016-12-24T01:37:05.207Z,74407
2016-12-24T01:37:13.856Z,74408
2016-12-24T01:37:22.527Z,74403
2016-12-24T01:37:31.186Z,74404
2016-12-24T01:37:39.858Z,74399
2016-12-24T01:37:48.565Z,74404
2016-12-24T01:37:57.248Z,74411
2016-12-24T01:38:05.908Z,74405
2016-12-24T01:38:14.574Z,74409
2016-12-24T01:38:23.238Z,74412
2016-12-24T01:38:31.898Z,74408
2016-12-24T01:38:40.564Z,74412
2016-12-24T01:38:49.251Z,74413
2016-12-24T01:38:57.921Z,74409
2016-12-24T01:39:06.577Z,74411
2016-12-24T01:39:15.273Z,74403
2016-12-24T01:39:23.932Z,74398
2016-12-24T01:39:32.589Z,74398
2016-12-24T01:39:41.256Z,74399
2016-12-24T01:39:49.921Z,74413
2016-12-24T01:39:58.593Z,74425
2016-12-24T01:40:07.286Z,74407
2016-12-24T01:40:15.957Z,74412
2016-12-24T01:40:24.640Z,74405
2016-12-24T01:40:33.303Z,74407
2016-12-24T01:40:41.975Z,74415
2016-12-24T01:40:50.659Z,74420
2016-12-24T01:40:59.330Z,74418
2016-12-24T01:41:07.989Z,74414
2016-12-24T01:41:16.654Z,74410
2016-12-24T01:41:25.335Z,74408
2016-12-24T01:41:34.007Z,74405
2016-12-24T01:41:42.664Z,74403
2016-12-24T01:41:51.335Z,74402
2016-12-24T01:41:59.999Z,74404
2016-12-24T01:42:08.668Z,74412
2016-12-24T01:42:17.337Z,74411
2016-12-24T01:42:26.017Z,74415
2016-12-24T01:42:34.690Z,74403
2016-12-24T01:42:43.363Z,74404
2016-12-24T01:42:52.022Z,74405
2016-12-24T01:43:00.680Z,74399
2016-12-24T01:43:09.357Z,74405
2016-12-24T01:43:18.033Z,74406
2016-12-24T01:43:26.704Z,74406
2016-12-24T01:43:35.659Z,74403
2016-12-24T01:43:44.324Z,74415
2016-12-24T01:43:53.010Z,74413
2016-12-24T01:44:01.669Z,74412
2016-12-24T01:44:10.317Z,74409
2016-12-24T01:44:18.985Z,74408
2016-12-24T01:44:27.665Z,74406
2016-12-24T01:44:36.354Z,74412
2016-12-24T01:44:45.045Z,74418
2016-12-24T01:44:53.699Z,74403
2016-12-24T01:45:02.366Z,74409
2016-12-24T01:45:11.026Z,74413
2016-12-24T01:45:19.715Z,74401
2016-12-24T01:45:28.400Z,74393
2016-12-24T01:45:37.363Z,74404
2016-12-24T01:45:46.044Z,74412
2016-12-24T01:45:54.722Z,74409
2016-12-24T01:46:03.397Z,74403
2016-12-24T01:46:12.063Z,74403
2016-12-24T01:46:20.759Z,74397
2016-12-24T01:46:29.429Z,74397
2016-12-24T01:46:38.100Z,74397
2016-12-24T01:46:46.761Z,74406
2016-12-24T01:46:55.427Z,74413
2016-12-24T01:47:04.081Z,74411
2016-12-24T01:47:12.751Z,74414
2016-12-24T01:47:21.415Z,74409
2016-12-24T01:47:30.086Z,74410
2016-12-24T01:47:38.758Z,74406
2016-12-24T01:47:47.435Z,74405
2016-12-24T01:47:56.120Z,74408
2016-12-24T01:48:04.809Z,74408
2016-12-24T01:48:13.472Z,74406
2016-12-24T01:48:22.138Z,74402
2016-12-24T01:48:30.807Z,74398
2016-12-24T01:48:39.465Z,74401
2016-12-24T01:48:48.147Z,74400
2016-12-24T01:48:56.818Z,74406
2016-12-24T01:49:05.460Z,74406
2016-12-24T01:49:14.115Z,74410
2016-12-24T01:49:22.779Z,74407
2016-12-24T01:49:31.464Z,74408
2016-12-24T01:49:40.109Z,74404
2016-12-24T01:49:48.791Z,74406
2016-12-24T01:49:57.471Z,74410
2016-12-24T01:50:06.152Z,74404
2016-12-24T01:50:14.828Z,74408
2016-12-24T01:50:23.489Z,74410
2016-12-24T01:50:32.155Z,74409
2016-12-24T01:50:40.845Z,74405
2016-12-24T01:50:49.509Z,74401
2016-12-24T01:50:58.182Z,74395
2016-12-24T01:51:06.845Z,74398
2016-12-24T01:51:15.515Z,74397
2016-12-24T01:51:24.181Z,74398
2016-12-24T01:51:32.848Z,74403
2016-12-24T01:51:41.499Z,74403
2016-12-24T01:51:50.447Z,74399